sensor_id;sensor_type;location;lat;lon;timestamp;pressure;altitude;pressure_sealevel;temperature;humidity
38054;BME280;23859;50.672;7.164;2023-04-15T00:01:27;58782.50;;;6.46;91.20
38054;BME280;23859;50.672;7.164;2023-04-15T00:03:55;58765.19;;;6.39;91.11
38054;BME280;23859;50.672;7.164;2023-04-15T00:06:21;58772.06;;;6.38;91.47
38054;BME280;23859;50.672;7.164;2023-04-15T00:08:48;58775.66;;;6.39;91.48
38054;BME280;23859;50.672;7.164;2023-04-15T00:11:15;58770.28;;;6.34;91.58
38054;BME280;23859;50.672;7.164;2023-04-15T00:13:42;58768.97;;;6.38;90.65
38054;BME280;23859;50.672;7.164;2023-04-15T00:16:09;58773.50;;;6.40;89.61
38054;BME280;23859;50.672;7.164;2023-04-15T00:18:35;58765.84;;;6.37;90.59
38054;BME280;23859;50.672;7.164;2023-04-15T00:21:02;58776.78;;;6.38;90.69
38054;BME280;23859;50.672;7.164;2023-04-15T00:23:29;58768.78;;;6.32;89.27
38054;BME280;23859;50.672;7.164;2023-04-15T00:25:55;58743.16;;;6.09;89.87
38054;BME280;23859;50.672;7.164;2023-04-15T00:28:22;58742.19;;;6.08;90.77
38054;BME280;23859;50.672;7.164;2023-04-15T00:30:48;58733.38;;;5.99;91.04
38054;BME280;23859;50.672;7.164;2023-04-15T00:33:14;58739.56;;;6.08;92.12
38054;BME280;23859;50.672;7.164;2023-04-15T00:35:41;58741.53;;;6.10;91.17
38054;BME280;23859;50.672;7.164;2023-04-15T00:38:07;58750.03;;;6.16;92.03
38054;BME280;23859;50.672;7.164;2023-04-15T00:40:33;58751.81;;;6.20;93.03
38054;BME280;23859;50.672;7.164;2023-04-15T00:43:00;58751.00;;;6.17;93.31
38054;BME280;23859;50.672;7.164;2023-04-15T00:45:26;58749.88;;;6.18;92.65
38054;BME280;23859;50.672;7.164;2023-04-15T00:47:53;58738.94;;;6.02;91.66
38054;BME280;23859;50.672;7.164;2023-04-15T00:50:20;58733.38;;;5.99;91.62
38054;BME280;23859;50.672;7.164;2023-04-15T00:52:46;58725.41;;;5.94;91.49
38054;BME280;23859;50.672;7.164;2023-04-15T00:55:12;58730.13;;;5.93;93.56
38054;BME280;23859;50.672;7.164;2023-04-15T00:57:39;58751.66;;;6.15;91.89
38054;BME280;23859;50.672;7.164;2023-04-15T01:00:06;58727.19;;;5.90;93.97
38054;BME280;23859;50.672;7.164;2023-04-15T01:02:36;58715.75;;;5.81;95.14
38054;BME280;23859;50.672;7.164;2023-04-15T01:05:04;58714.97;;;5.78;95.75
38054;BME280;23859;50.672;7.164;2023-04-15T01:07:30;58700.09;;;5.65;95.55
38054;BME280;23859;50.672;7.164;2023-04-15T01:09:57;58696.53;;;5.64;94.83
38054;BME280;23859;50.672;7.164;2023-04-15T01:12:25;58698.47;;;5.66;95.51
38054;BME280;23859;50.672;7.164;2023-04-15T01:14:52;58697.16;;;5.62;96.56
38054;BME280;23859;50.672;7.164;2023-04-15T01:17:18;58697.97;;;5.58;96.77
38054;BME280;23859;50.672;7.164;2023-04-15T01:19:44;58690.00;;;5.52;97.12
38054;BME280;23859;50.672;7.164;2023-04-15T01:22:10;58690.63;;;5.50;96.75
38054;BME280;23859;50.672;7.164;2023-04-15T01:24:37;58678.72;;;5.41;96.00
38054;BME280;23859;50.672;7.164;2023-04-15T01:27:04;58683.47;;;5.48;95.89
38054;BME280;23859;50.672;7.164;2023-04-15T01:29:31;58593.69;;;4.62;95.37
38054;BME280;23859;50.672;7.164;2023-04-15T01:31:58;58668.63;;;5.36;96.00
38054;BME280;23859;50.672;7.164;2023-04-15T01:34:24;58663.59;;;5.26;96.49
38054;BME280;23859;50.672;7.164;2023-04-15T01:36:50;58667.00;;;5.29;96.42
38054;BME280;23859;50.672;7.164;2023-04-15T01:39:16;58659.19;;;5.29;97.13
38054;BME280;23859;50.672;7.164;2023-04-15T01:41:42;58670.25;;;5.35;98.08
38054;BME280;23859;50.672;7.164;2023-04-15T01:44:09;58676.63;;;5.41;96.68
38054;BME280;23859;50.672;7.164;2023-04-15T01:46:35;58673.34;;;5.35;96.43
38054;BME280;23859;50.672;7.164;2023-04-15T01:49:01;58669.13;;;5.36;96.81
38054;BME280;23859;50.672;7.164;2023-04-15T01:51:27;58675.97;;;5.43;96.61
38054;BME280;23859;50.672;7.164;2023-04-15T01:53:53;58682.16;;;5.44;96.89
38054;BME280;23859;50.672;7.164;2023-04-15T01:56:21;58663.91;;;5.28;97.66
38054;BME280;23859;50.672;7.164;2023-04-15T01:58:49;58653.81;;;5.16;99.03
38054;BME280;23859;50.672;7.164;2023-04-15T02:01:15;58642.72;;;5.10;98.09
38054;BME280;23859;50.672;7.164;2023-04-15T02:03:44;58643.53;;;5.05;97.81
38054;BME280;23859;50.672;7.164;2023-04-15T02:06:11;58634.25;;;4.96;97.95
38054;BME280;23859;50.672;7.164;2023-04-15T02:08:37;58638.47;;;5.03;98.25
38054;BME280;23859;50.672;7.164;2023-04-15T02:11:03;58642.06;;;5.04;97.23
38054;BME280;23859;50.672;7.164;2023-04-15T02:13:30;58632.47;;;4.99;97.92
38054;BME280;23859;50.672;7.164;2023-04-15T02:15:56;58637.84;;;5.05;98.85
38054;BME280;23859;50.672;7.164;2023-04-15T02:18:22;58623.31;;;4.87;99.44
38054;BME280;23859;50.672;7.164;2023-04-15T02:20:51;58624.31;;;4.88;99.90
38054;BME280;23859;50.672;7.164;2023-04-15T02:23:17;58609.16;;;4.81;100.00
38054;BME280;23859;50.672;7.164;2023-04-15T02:25:43;58624.97;;;4.86;100.00
38054;BME280;23859;50.672;7.164;2023-04-15T02:28:09;58627.06;;;4.86;100.00
38054;BME280;23859;50.672;7.164;2023-04-15T02:30:35;58614.06;;;4.78;100.00
38054;BME280;23859;50.672;7.164;2023-04-15T02:33:01;58630.97;;;4.90;100.00
38054;BME280;23859;50.672;7.164;2023-04-15T02:35:27;58633.75;;;4.95;100.00
38054;BME280;23859;50.672;7.164;2023-04-15T02:37:54;58649.41;;;5.11;100.00
38054;BME280;23859;50.672;7.164;2023-04-15T02:40:20;58643.53;;;5.05;100.00
38054;BME280;23859;50.672;7.164;2023-04-15T02:42:46;58626.75;;;4.91;99.88
38054;BME280;23859;50.672;7.164;2023-04-15T02:45:12;58631.00;;;4.98;99.57
38054;BME280;23859;50.672;7.164;2023-04-15T02:47:38;58626.59;;;4.93;98.42
38054;BME280;23859;50.672;7.164;2023-04-15T02:50:08;58628.06;;;4.87;99.12
38054;BME280;23859;50.672;7.164;2023-04-15T02:52:36;58616.81;;;4.83;99.23
38054;BME280;23859;50.672;7.164;2023-04-15T02:55:02;58615.69;;;4.77;99.42
38054;BME280;23859;50.672;7.164;2023-04-15T02:57:29;58611.78;;;4.73;99.51
38054;BME280;23859;50.672;7.164;2023-04-15T02:59:55;58613.22;;;4.82;100.00
38054;BME280;23859;50.672;7.164;2023-04-15T03:02:21;58612.56;;;4.76;99.80
38054;BME280;23859;50.672;7.164;2023-04-15T03:04:47;58609.00;;;4.75;100.00
38054;BME280;23859;50.672;7.164;2023-04-15T03:07:13;58611.63;;;4.75;100.00
38054;BME280;23859;50.672;7.164;2023-04-15T03:09:40;58609.50;;;4.68;100.00
38054;BME280;23859;50.672;7.164;2023-04-15T03:12:06;58586.84;;;4.56;100.00
38054;BME280;23859;50.672;7.164;2023-04-15T03:14:32;58595.00;;;4.59;100.00
38054;BME280;23859;50.672;7.164;2023-04-15T03:16:59;58587.00;;;4.45;99.92
38054;BME280;23859;50.672;7.164;2023-04-15T03:19:25;58594.19;;;4.55;100.00
38054;BME280;23859;50.672;7.164;2023-04-15T03:21:51;58596.63;;;4.58;100.00
38054;BME280;23859;50.672;7.164;2023-04-15T03:24:19;58588.78;;;4.50;100.00
38054;BME280;23859;50.672;7.164;2023-04-15T03:26:45;58591.91;;;4.50;100.00
38054;BME280;23859;50.672;7.164;2023-04-15T03:29:11;58598.25;;;4.64;99.07
38054;BME280;23859;50.672;7.164;2023-04-15T03:31:37;58610.28;;;4.71;98.42
38054;BME280;23859;50.672;7.164;2023-04-15T03:34:03;58600.19;;;4.66;98.56
38054;BME280;23859;50.672;7.164;2023-04-15T03:36:30;58609.81;;;4.71;98.06
38054;BME280;23859;50.672;7.164;2023-04-15T03:38:58;58598.75;;;4.65;98.96
38054;BME280;23859;50.672;7.164;2023-04-15T03:41:24;58584.09;;;4.50;99.73
38054;BME280;23859;50.672;7.164;2023-04-15T03:43:50;58581.47;;;4.42;100.00
38054;BME280;23859;50.672;7.164;2023-04-15T03:46:19;58573.16;;;4.34;100.00
38054;BME280;23859;50.672;7.164;2023-04-15T03:48:46;58581.47;;;4.50;100.00
38054;BME280;23859;50.672;7.164;2023-04-15T03:51:12;58595.16;;;4.56;100.00
38054;BME280;23859;50.672;7.164;2023-04-15T03:53:38;58582.44;;;4.43;100.00
38054;BME280;23859;50.672;7.164;2023-04-15T03:56:04;58582.78;;;4.46;100.00
38054;BME280;23859;50.672;7.164;2023-04-15T03:58:30;58575.94;;;4.39;100.00
38054;BME280;23859;50.672;7.164;2023-04-15T04:00:56;58578.03;;;4.39;100.00
38054;BME280;23859;50.672;7.164;2023-04-15T04:03:22;58573.31;;;4.31;100.00
38054;BME280;23859;50.672;7.164;2023-04-15T04:05:48;58567.63;;;4.31;100.00
38054;BME280;23859;50.672;7.164;2023-04-15T04:08:14;58578.38;;;4.42;100.00
38054;BME280;23859;50.672;7.164;2023-04-15T04:10:41;58581.16;;;4.39;100.00
38054;BME280;23859;50.672;7.164;2023-04-15T04:13:07;58573.16;;;4.34;100.00
38054;BME280;23859;50.672;7.164;2023-04-15T04:15:33;58568.13;;;4.31;100.00
38054;BME280;23859;50.672;7.164;2023-04-15T04:17:59;58558.03;;;4.26;100.00
38054;BME280;23859;50.672;7.164;2023-04-15T04:20:26;58564.53;;;4.22;100.00
38054;BME280;23859;50.672;7.164;2023-04-15T04:22:52;58559.66;;;4.25;100.00
38054;BME280;23859;50.672;7.164;2023-04-15T04:25:18;58552.50;;;4.15;100.00
38054;BME280;23859;50.672;7.164;2023-04-15T04:27:44;58554.28;;;4.20;100.00
38054;BME280;23859;50.672;7.164;2023-04-15T04:30:10;58561.94;;;4.22;100.00
38054;BME280;23859;50.672;7.164;2023-04-15T04:32:37;58548.59;;;4.11;100.00
38054;BME280;23859;50.672;7.164;2023-04-15T04:35:03;58563.41;;;4.24;100.00
38054;BME280;23859;50.672;7.164;2023-04-15T04:37:29;58566.19;;;4.29;100.00
38054;BME280;23859;50.672;7.164;2023-04-15T04:39:56;58567.47;;;4.33;100.00
38054;BME280;23859;50.672;7.164;2023-04-15T04:42:22;58555.75;;;4.21;100.00
38054;BME280;23859;50.672;7.164;2023-04-15T04:44:48;58559.00;;;4.27;100.00
38054;BME280;23859;50.672;7.164;2023-04-15T04:47:14;58559.16;;;4.25;100.00
38054;BME280;23859;50.672;7.164;2023-04-15T04:49:40;58560.00;;;4.28;100.00
38054;BME280;23859;50.672;7.164;2023-04-15T04:52:06;58553.47;;;4.16;100.00
38054;BME280;23859;50.672;7.164;2023-04-15T04:54:32;58552.31;;;4.18;100.00
38054;BME280;23859;50.672;7.164;2023-04-15T04:56:58;58565.34;;;4.26;100.00
38054;BME280;23859;50.672;7.164;2023-04-15T04:59:25;58561.44;;;4.22;100.00
38054;BME280;23859;50.672;7.164;2023-04-15T05:01:51;58557.53;;;4.18;100.00
38054;BME280;23859;50.672;7.164;2023-04-15T05:04:17;58559.34;;;4.14;100.00
38054;BME280;23859;50.672;7.164;2023-04-15T05:06:43;58561.28;;;4.16;100.00
38054;BME280;23859;50.672;7.164;2023-04-15T05:09:11;58560.63;;;4.18;100.00
38054;BME280;23859;50.672;7.164;2023-04-15T05:11:37;58556.72;;;4.22;100.00
38054;BME280;23859;50.672;7.164;2023-04-15T05:14:03;58567.78;;;4.28;100.00
38054;BME280;23859;50.672;7.164;2023-04-15T05:16:29;58569.91;;;4.36;100.00
38054;BME280;23859;50.672;7.164;2023-04-15T05:18:55;58574.13;;;4.35;100.00
38054;BME280;23859;50.672;7.164;2023-04-15T05:21:21;58575.75;;;4.34;100.00
38054;BME280;23859;50.672;7.164;2023-04-15T05:23:48;58588.31;;;4.49;100.00
38054;BME280;23859;50.672;7.164;2023-04-15T05:26:14;58600.38;;;4.64;100.00
38054;BME280;23859;50.672;7.164;2023-04-15T05:28:40;58617.31;;;4.76;100.00
38054;BME280;23859;50.672;7.164;2023-04-15T05:31:06;58640.59;;;5.02;100.00
38054;BME280;23859;50.672;7.164;2023-04-15T05:33:32;58651.19;;;5.16;100.00
38054;BME280;23859;50.672;7.164;2023-04-15T05:35:58;58658.53;;;5.23;100.00
38054;BME280;23859;50.672;7.164;2023-04-15T05:38:24;58680.06;;;5.45;100.00
38054;BME280;23859;50.672;7.164;2023-04-15T05:40:51;58679.38;;;5.47;100.00
38054;BME280;23859;50.672;7.164;2023-04-15T05:43:17;58687.38;;;5.52;100.00
38054;BME280;23859;50.672;7.164;2023-04-15T05:45:43;58722.63;;;5.88;100.00
38054;BME280;23859;50.672;7.164;2023-04-15T05:48:09;58744.47;;;6.13;99.93
38054;BME280;23859;50.672;7.164;2023-04-15T05:50:35;58763.22;;;6.21;98.50
38054;BME280;23859;50.672;7.164;2023-04-15T05:53:01;58768.13;;;6.34;97.13
38054;BME280;23859;50.672;7.164;2023-04-15T05:55:27;58786.25;;;6.53;96.67
38054;BME280;23859;50.672;7.164;2023-04-15T05:57:53;58790.50;;;6.52;96.89
38054;BME280;23859;50.672;7.164;2023-04-15T06:00:19;58820.22;;;6.84;95.29
38054;BME280;23859;50.672;7.164;2023-04-15T06:02:46;58829.66;;;6.99;93.18
38054;BME280;23859;50.672;7.164;2023-04-15T06:05:12;58849.44;;;7.17;92.03
38054;BME280;23859;50.672;7.164;2023-04-15T06:07:38;58856.13;;;7.26;93.65
38054;BME280;23859;50.672;7.164;2023-04-15T06:10:05;58877.53;;;7.42;92.97
38054;BME280;23859;50.672;7.164;2023-04-15T06:12:31;58929.00;;;7.94;91.04
38054;BME280;23859;50.672;7.164;2023-04-15T06:14:57;58923.47;;;7.84;88.99
38054;BME280;23859;50.672;7.164;2023-04-15T06:17:23;58913.31;;;7.79;88.69
38054;BME280;23859;50.672;7.164;2023-04-15T06:19:50;58901.56;;;7.67;89.73
38054;BME280;23859;50.672;7.164;2023-04-15T06:22:20;58908.25;;;7.76;88.20
38054;BME280;23859;50.672;7.164;2023-04-15T06:24:48;58939.63;;;8.08;88.40
38054;BME280;23859;50.672;7.164;2023-04-15T06:27:17;58983.97;;;8.50;86.71
38054;BME280;23859;50.672;7.164;2023-04-15T06:29:43;58951.59;;;8.17;84.75
38054;BME280;23859;50.672;7.164;2023-04-15T06:32:10;58960.44;;;8.26;85.79
38054;BME280;23859;50.672;7.164;2023-04-15T06:34:36;58993.13;;;8.62;85.33
38054;BME280;23859;50.672;7.164;2023-04-15T06:37:02;59026.19;;;8.93;84.80
38054;BME280;23859;50.672;7.164;2023-04-15T06:39:28;59057.63;;;9.25;83.19
38054;BME280;23859;50.672;7.164;2023-04-15T06:41:54;59072.00;;;9.44;80.92
38054;BME280;23859;50.672;7.164;2023-04-15T06:44:21;59073.00;;;9.45;80.39
38054;BME280;23859;50.672;7.164;2023-04-15T06:46:47;59131.34;;;9.99;78.36
38054;BME280;23859;50.672;7.164;2023-04-15T06:49:13;59167.53;;;10.38;77.13
38054;BME280;23859;50.672;7.164;2023-04-15T06:51:39;59218.53;;;10.92;74.49
38054;BME280;23859;50.672;7.164;2023-04-15T06:54:05;59236.09;;;11.05;72.83
38054;BME280;23859;50.672;7.164;2023-04-15T06:56:32;59243.63;;;11.18;74.27
38054;BME280;23859;50.672;7.164;2023-04-15T06:58:58;59310.28;;;11.82;68.11
38054;BME280;23859;50.672;7.164;2023-04-15T07:01:24;59385.16;;;12.58;66.17
38054;BME280;23859;50.672;7.164;2023-04-15T07:03:50;59445.50;;;13.16;62.43
38054;BME280;23859;50.672;7.164;2023-04-15T07:06:17;59482.31;;;13.55;61.02
38054;BME280;23859;50.672;7.164;2023-04-15T07:08:43;59541.88;;;14.18;60.53
38054;BME280;23859;50.672;7.164;2023-04-15T07:11:09;59612.38;;;14.83;57.41
38054;BME280;23859;50.672;7.164;2023-04-15T07:13:36;59740.91;;;16.12;53.77
38054;BME280;23859;50.672;7.164;2023-04-15T07:16:02;59779.28;;;16.62;52.25
38054;BME280;23859;50.672;7.164;2023-04-15T07:18:28;59701.63;;;15.84;52.90
38054;BME280;23859;50.672;7.164;2023-04-15T07:20:54;59654.53;;;15.31;54.44
38054;BME280;23859;50.672;7.164;2023-04-15T07:23:21;59605.09;;;14.81;57.23
38054;BME280;23859;50.672;7.164;2023-04-15T07:25:47;59648.59;;;15.25;56.95
38054;BME280;23859;50.672;7.164;2023-04-15T07:28:13;59682.50;;;15.62;54.90
38054;BME280;23859;50.672;7.164;2023-04-15T07:30:39;59727.56;;;15.99;53.96
38054;BME280;23859;50.672;7.164;2023-04-15T07:33:06;59756.91;;;16.34;52.87
38054;BME280;23859;50.672;7.164;2023-04-15T07:35:32;59779.84;;;16.54;53.04
38054;BME280;23859;50.672;7.164;2023-04-15T07:37:58;59781.78;;;16.64;52.44
38054;BME280;23859;50.672;7.164;2023-04-15T07:40:24;59788.75;;;16.63;51.85
38054;BME280;23859;50.672;7.164;2023-04-15T07:42:51;59766.97;;;16.41;53.24
38054;BME280;23859;50.672;7.164;2023-04-15T07:45:17;59779.53;;;16.51;52.95
38054;BME280;23859;50.672;7.164;2023-04-15T07:47:43;59783.63;;;16.61;52.00
38054;BME280;23859;50.672;7.164;2023-04-15T07:50:09;59826.31;;;17.09;51.79
38054;BME280;23859;50.672;7.164;2023-04-15T07:52:39;59835.09;;;17.12;52.38
38054;BME280;23859;50.672;7.164;2023-04-15T07:55:06;59820.38;;;17.03;51.65
38054;BME280;23859;50.672;7.164;2023-04-15T07:57:36;59817.28;;;16.94;52.73
38054;BME280;23859;50.672;7.164;2023-04-15T08:00:03;59826.00;;;17.06;51.94
38054;BME280;23859;50.672;7.164;2023-04-15T08:02:32;59851.28;;;17.31;51.94
38054;BME280;23859;50.672;7.164;2023-04-15T08:04:59;59881.19;;;17.58;50.68
38054;BME280;23859;50.672;7.164;2023-04-15T08:07:27;59897.41;;;17.69;50.58
38054;BME280;23859;50.672;7.164;2023-04-15T08:09:53;59925.91;;;18.08;49.21
38054;BME280;23859;50.672;7.164;2023-04-15T08:12:19;60000.16;;;18.77;46.79
38054;BME280;23859;50.672;7.164;2023-04-15T08:14:46;60080.75;;;19.55;45.79
38054;BME280;23859;50.672;7.164;2023-04-15T08:17:12;60137.41;;;20.25;44.17
38054;BME280;23859;50.672;7.164;2023-04-15T08:19:38;60177.56;;;20.60;43.44
38054;BME280;23859;50.672;7.164;2023-04-15T08:22:04;60135.50;;;20.15;43.63
38054;BME280;23859;50.672;7.164;2023-04-15T08:24:31;60081.06;;;19.58;45.65
38054;BME280;23859;50.672;7.164;2023-04-15T08:26:57;60032.00;;;19.01;45.60
38054;BME280;23859;50.672;7.164;2023-04-15T08:29:24;59952.06;;;18.29;48.78
38054;BME280;23859;50.672;7.164;2023-04-15T08:31:50;59946.63;;;18.24;48.66
38054;BME280;23859;50.672;7.164;2023-04-15T08:34:17;59902.97;;;17.80;48.17
38054;BME280;23859;50.672;7.164;2023-04-15T08:36:43;59959.81;;;18.40;47.38
38054;BME280;23859;50.672;7.164;2023-04-15T08:39:09;59954.56;;;18.32;47.92
38054;BME280;23859;50.672;7.164;2023-04-15T08:41:46;59984.28;;;18.62;48.21
38054;BME280;23859;50.672;7.164;2023-04-15T08:44:13;59987.97;;;18.63;47.35
38054;BME280;23859;50.672;7.164;2023-04-15T08:46:40;59916.88;;;17.94;49.94
38054;BME280;23859;50.672;7.164;2023-04-15T08:49:10;59896.06;;;17.73;50.02
38054;BME280;23859;50.672;7.164;2023-04-15T08:51:39;59901.50;;;17.79;50.48
38054;BME280;23859;50.672;7.164;2023-04-15T08:54:05;59880.50;;;17.60;49.81
38054;BME280;23859;50.672;7.164;2023-04-15T08:56:33;59895.38;;;17.75;50.92
38054;BME280;23859;50.672;7.164;2023-04-15T08:59:00;59872.25;;;17.49;52.13
38054;BME280;23859;50.672;7.164;2023-04-15T09:01:26;59886.63;;;17.64;51.29
38054;BME280;23859;50.672;7.164;2023-04-15T09:03:53;59919.28;;;18.04;50.38
38054;BME280;23859;50.672;7.164;2023-04-15T09:06:22;59953.88;;;18.34;48.47
38054;BME280;23859;50.672;7.164;2023-04-15T09:08:49;59969.06;;;18.52;50.24
38054;BME280;23859;50.672;7.164;2023-04-15T09:11:16;60055.06;;;19.35;46.39
38054;BME280;23859;50.672;7.164;2023-04-15T09:13:43;60101.03;;;19.84;45.06
38054;BME280;23859;50.672;7.164;2023-04-15T09:16:09;60127.50;;;20.15;45.29
38054;BME280;23859;50.672;7.164;2023-04-15T09:18:37;60119.00;;;19.94;46.40
38054;BME280;23859;50.672;7.164;2023-04-15T09:21:06;60119.16;;;19.91;45.38
38054;BME280;23859;50.672;7.164;2023-04-15T09:23:34;60107.38;;;19.85;45.09
38054;BME280;23859;50.672;7.164;2023-04-15T09:26:02;60012.56;;;18.90;44.97
38054;BME280;23859;50.672;7.164;2023-04-15T09:28:29;60106.00;;;19.89;45.10
38054;BME280;23859;50.672;7.164;2023-04-15T09:30:59;60079.19;;;19.62;44.44
38054;BME280;23859;50.672;7.164;2023-04-15T09:33:27;60010.72;;;18.93;42.00
38054;BME280;23859;50.672;7.164;2023-04-15T09:35:57;60087.81;;;19.68;40.42
38054;BME280;23859;50.672;7.164;2023-04-15T09:38:24;60084.16;;;19.67;40.61
38054;BME280;23859;50.672;7.164;2023-04-15T09:40:50;60100.03;;;19.83;40.45
38054;BME280;23859;50.672;7.164;2023-04-15T09:43:16;60088.00;;;19.65;39.33
38054;BME280;23859;50.672;7.164;2023-04-15T09:45:51;60096.84;;;19.69;40.90
38054;BME280;23859;50.672;7.164;2023-04-15T09:48:23;60038.19;;;19.18;41.04
38054;BME280;23859;50.672;7.164;2023-04-15T09:50:56;60055.88;;;19.38;39.42
38054;BME280;23859;50.672;7.164;2023-04-15T09:53:24;60125.91;;;20.08;40.36
38054;BME280;23859;50.672;7.164;2023-04-15T09:58:24;60243.78;;;21.32;36.36
38054;BME280;23859;50.672;7.164;2023-04-15T10:00:52;60285.25;;;21.70;35.96
38054;BME280;23859;50.672;7.164;2023-04-15T10:03:26;60376.22;;;22.56;34.45
38054;BME280;23859;50.672;7.164;2023-04-15T10:05:55;60385.88;;;22.63;34.69
38054;BME280;23859;50.672;7.164;2023-04-15T10:08:23;60374.94;;;22.52;34.15
38054;BME280;23859;50.672;7.164;2023-04-15T10:10:50;60391.88;;;22.69;33.63
38054;BME280;23859;50.672;7.164;2023-04-15T10:13:24;60413.38;;;22.95;34.80
38054;BME280;23859;50.672;7.164;2023-04-15T10:16:14;60446.16;;;23.23;33.74
38054;BME280;23859;50.672;7.164;2023-04-15T10:18:45;60349.72;;;22.24;33.82
38054;BME280;23859;50.672;7.164;2023-04-15T10:21:12;60337.69;;;22.20;35.21
38054;BME280;23859;50.672;7.164;2023-04-15T10:23:41;60293.63;;;21.73;36.40
38054;BME280;23859;50.672;7.164;2023-04-15T10:26:09;60248.16;;;21.31;35.43
38054;BME280;23859;50.672;7.164;2023-04-15T10:28:37;60247.44;;;21.33;38.61
38054;BME280;23859;50.672;7.164;2023-04-15T10:31:04;60275.69;;;21.55;36.52
38054;BME280;23859;50.672;7.164;2023-04-15T10:33:31;60300.75;;;21.78;36.34
38054;BME280;23859;50.672;7.164;2023-04-15T10:35:59;60351.63;;;22.34;36.01
38054;BME280;23859;50.672;7.164;2023-04-15T10:38:33;60398.84;;;22.76;35.38
38054;BME280;23859;50.672;7.164;2023-04-15T10:41:13;60394.84;;;22.72;34.48
38054;BME280;23859;50.672;7.164;2023-04-15T10:46:36;60384.00;;;22.66;35.61
38054;BME280;23859;50.672;7.164;2023-04-15T10:49:09;60459.22;;;23.41;34.76
38054;BME280;23859;50.672;7.164;2023-04-15T10:51:40;60506.09;;;23.88;34.08
38054;BME280;23859;50.672;7.164;2023-04-15T10:54:13;60557.34;;;24.33;32.83
38054;BME280;23859;50.672;7.164;2023-04-15T10:56:41;60577.50;;;24.64;33.19
38054;BME280;23859;50.672;7.164;2023-04-15T10:59:09;60608.13;;;24.92;32.16
38054;BME280;23859;50.672;7.164;2023-04-15T11:01:55;60590.28;;;24.66;31.98
38054;BME280;23859;50.672;7.164;2023-04-15T11:04:51;60590.88;;;24.72;32.24
38054;BME280;23859;50.672;7.164;2023-04-15T11:07:37;60597.56;;;24.76;32.67
38054;BME280;23859;50.672;7.164;2023-04-15T11:12:51;60480.53;;;23.57;34.04
38054;BME280;23859;50.672;7.164;2023-04-15T11:15:35;60480.03;;;23.56;33.54
38054;BME280;23859;50.672;7.164;2023-04-15T11:20:39;60277.00;;;21.59;38.25
38054;BME280;23859;50.672;7.164;2023-04-15T11:23:06;60243.56;;;21.21;39.04
38054;BME280;23859;50.672;7.164;2023-04-15T11:25:34;60201.50;;;20.76;39.84
38054;BME280;23859;50.672;7.164;2023-04-15T11:28:01;60128.19;;;20.13;41.47
38054;BME280;23859;50.672;7.164;2023-04-15T11:30:29;60105.00;;;19.88;42.31
38054;BME280;23859;50.672;7.164;2023-04-15T11:33:02;60115.34;;;19.93;42.65
38054;BME280;23859;50.672;7.164;2023-04-15T11:35:28;60058.16;;;19.43;43.05
38054;BME280;23859;50.672;7.164;2023-04-15T11:37:55;60066.16;;;19.43;44.29
38054;BME280;23859;50.672;7.164;2023-04-15T11:40:29;60052.78;;;19.30;44.15
38054;BME280;23859;50.672;7.164;2023-04-15T11:43:14;60008.13;;;18.85;46.57
38054;BME280;23859;50.672;7.164;2023-04-15T11:46:10;60015.75;;;18.90;46.39
38054;BME280;23859;50.672;7.164;2023-04-15T11:48:40;59975.50;;;18.58;46.15
38054;BME280;23859;50.672;7.164;2023-04-15T11:51:07;59891.78;;;17.66;48.15
38054;BME280;23859;50.672;7.164;2023-04-15T11:53:43;59917.34;;;17.95;49.23
38054;BME280;23859;50.672;7.164;2023-04-15T11:56:46;59856.41;;;17.34;52.90
38054;BME280;23859;50.672;7.164;2023-04-15T11:59:03;59814.13;;;16.94;51.34
38054;BME280;23859;50.672;7.164;2023-04-15T12:01:32;59814.31;;;16.91;51.98
38054;BME280;23859;50.672;7.164;2023-04-15T12:03:59;59808.34;;;16.85;52.31
38054;BME280;23859;50.672;7.164;2023-04-15T12:06:31;59780.47;;;16.60;53.57
38054;BME280;23859;50.672;7.164;2023-04-15T12:09:12;59764.63;;;16.44;53.68
38054;BME280;23859;50.672;7.164;2023-04-15T12:11:49;59788.06;;;16.65;53.46
38054;BME280;23859;50.672;7.164;2023-04-15T12:14:28;59798.97;;;16.76;54.36
38054;BME280;23859;50.672;7.164;2023-04-15T12:16:57;59798.59;;;16.81;53.05
38054;BME280;23859;50.672;7.164;2023-04-15T12:19:45;59819.38;;;17.02;53.51
38054;BME280;23859;50.672;7.164;2023-04-15T12:22:13;59815.28;;;16.92;53.30
38054;BME280;23859;50.672;7.164;2023-04-15T12:24:40;59803.91;;;16.81;53.61
38054;BME280;23859;50.672;7.164;2023-04-15T12:27:10;59775.03;;;16.55;53.39
38054;BME280;23859;50.672;7.164;2023-04-15T12:29:38;59750.47;;;16.27;54.60
38054;BME280;23859;50.672;7.164;2023-04-15T12:32:09;59680.03;;;15.59;57.44
38054;BME280;23859;50.672;7.164;2023-04-15T12:34:43;59709.41;;;15.86;56.67
38054;BME280;23859;50.672;7.164;2023-04-15T12:37:11;59634.09;;;15.05;56.92
38054;BME280;23859;50.672;7.164;2023-04-15T12:39:39;59676.31;;;15.45;57.64
38054;BME280;23859;50.672;7.164;2023-04-15T12:42:06;59675.63;;;15.47;58.45
38054;BME280;23859;50.672;7.164;2023-04-15T12:44:33;59656.31;;;15.35;59.02
38054;BME280;23859;50.672;7.164;2023-04-15T12:47:00;59633.94;;;15.08;60.92
38054;BME280;23859;50.672;7.164;2023-04-15T12:49:27;59632.25;;;15.09;60.88
38054;BME280;23859;50.672;7.164;2023-04-15T12:51:54;59632.94;;;15.07;60.36
38054;BME280;23859;50.672;7.164;2023-04-15T12:54:21;59602.13;;;14.78;61.59
38054;BME280;23859;50.672;7.164;2023-04-15T12:56:48;59585.16;;;14.64;63.68
38054;BME280;23859;50.672;7.164;2023-04-15T12:59:15;59613.97;;;14.90;62.47
38054;BME280;23859;50.672;7.164;2023-04-15T13:01:43;59623.88;;;15.00;62.46
38054;BME280;23859;50.672;7.164;2023-04-15T13:04:10;59618.25;;;14.97;62.50
38054;BME280;23859;50.672;7.164;2023-04-15T13:06:36;59626.16;;;15.05;61.82
38054;BME280;23859;50.672;7.164;2023-04-15T13:09:03;59606.38;;;14.85;63.07
38054;BME280;23859;50.672;7.164;2023-04-15T13:11:30;59580.41;;;14.57;65.36
38054;BME280;23859;50.672;7.164;2023-04-15T13:14:06;59547.25;;;14.31;65.26
38054;BME280;23859;50.672;7.164;2023-04-15T13:16:33;59566.38;;;14.45;65.63